Time;durP1;ratioP1;P1;durP2;ratioP2;P2;SDS_P1;SDS_P2;PMS_P1;PMS_P2;Temp;Humidity;BMP_temperature;BMP_pressure;BME280_temperature;BME280_humidity;BME280_pressure;Samples;Min_cycle;Max_cycle;Signal;HPM_P1;HPM_P2
2021/06/20 00:00:36;;;;;;;9.27;4.72;;;27.20;93.70;;;;;;5077634;28;20232;-61
2021/06/20 00:03:04;;;;;;;6.15;5.13;;;27.30;93.10;;;;;;5077829;28;20317;-60
2021/06/20 00:05:33;;;;;;;7.97;4.82;;;27.40;92.60;;;;;;5077502;28;20215;-59
2021/06/20 00:08:01;;;;;;;8.00;4.75;;;27.50;92.30;;;;;;5077101;28;20212;-60
2021/06/20 00:10:28;;;;;;;6.72;5.10;;;27.50;91.70;;;;;;5077067;28;20263;-60
2021/06/20 00:12:56;;;;;;;9.45;4.70;;;27.60;91.30;;;;;;5077313;28;20373;-59
2021/06/20 00:15:24;;;;;;;7.70;4.85;;;27.70;91.10;;;;;;5077063;28;20236;-60
2021/06/20 00:17:53;;;;;;;12.48;4.93;;;27.70;90.70;;;;;;5077098;28;20209;-59
2021/06/20 00:20:23;;;;;;;8.60;4.68;;;27.70;90.40;;;;;;5077000;28;20232;-59
2021/06/20 00:22:50;;;;;;;11.82;4.85;;;27.60;89.50;;;;;;5077152;28;20220;-59
2021/06/20 00:25:17;;;;;;;9.27;4.95;;;27.70;88.50;;;;;;5077056;28;20266;-59
2021/06/20 00:27:43;;;;;;;7.82;4.55;;;27.80;87.60;;;;;;5076976;28;20592;-59
2021/06/20 00:30:13;;;;;;;8.68;4.72;;;27.90;89.10;;;;;;5076937;28;20707;-60
2021/06/20 00:32:40;;;;;;;7.95;4.78;;;27.90;90.00;;;;;;5077419;28;20205;-59
2021/06/20 00:35:10;;;;;;;5.18;4.60;;;27.90;90.80;;;;;;5077020;28;20208;-59
2021/06/20 00:37:36;;;;;;;7.68;4.82;;;27.90;91.00;;;;;;5077290;28;20274;-59
2021/06/20 00:40:04;;;;;;;8.68;4.97;;;27.80;91.40;;;;;;5077063;28;20228;-59
2021/06/20 00:42:30;;;;;;;10.52;5.50;;;27.70;91.60;;;;;;5076904;28;20708;-59
2021/06/20 00:44:57;;;;;;;8.50;4.80;;;27.60;91.60;;;;;;5077214;28;20565;-59
2021/06/20 00:47:24;;;;;;;7.93;4.95;;;27.60;91.30;;;;;;5077321;28;20668;-59
2021/06/20 00:49:50;;;;;;;9.13;5.03;;;27.60;90.60;;;;;;5076980;28;20240;-58
2021/06/20 00:52:19;;;;;;;5.22;4.35;;;27.60;90.20;;;;;;5077861;28;20205;-58
2021/06/20 00:54:47;;;;;;;8.57;4.95;;;27.60;89.50;;;;;;5077281;28;20209;-58
2021/06/20 00:57:15;;;;;;;10.73;4.53;;;27.70;89.00;;;;;;5077721;28;20209;-58
2021/06/20 00:59:43;;;;;;;13.45;4.85;;;27.70;88.50;;;;;;5077334;28;20286;-60
2021/06/20 01:02:11;;;;;;;6.43;4.35;;;27.70;88.10;;;;;;5074870;28;20212;-58
2021/06/20 01:04:38;;;;;;;7.65;4.88;;;27.80;87.70;;;;;;5073550;28;20828;-58
2021/06/20 01:07:05;;;;;;;9.80;5.10;;;27.80;87.80;;;;;;5074066;28;20205;-59
2021/06/20 01:09:33;;;;;;;11.38;5.00;;;27.80;89.50;;;;;;5073472;28;20233;-58
2021/06/20 01:12:00;;;;;;;8.75;4.85;;;27.80;89.30;;;;;;5073942;28;20204;-59
2021/06/20 01:14:27;;;;;;;8.68;4.38;;;27.80;89.40;;;;;;5073598;28;20609;-58
2021/06/20 01:16:56;;;;;;;8.30;4.93;;;27.90;89.40;;;;;;5073659;28;20621;-59
2021/06/20 01:19:23;;;;;;;9.35;4.80;;;27.90;90.20;;;;;;5073208;28;20204;-59
2021/06/20 01:21:50;;;;;;;11.05;4.30;;;27.90;90.30;;;;;;5073358;28;20216;-59
2021/06/20 01:24:18;;;;;;;9.95;4.85;;;27.80;89.60;;;;;;5073447;28;20603;-59
2021/06/20 01:26:45;;;;;;;9.52;5.22;;;27.80;89.20;;;;;;5073457;28;20205;-58
2021/06/20 01:29:13;;;;;;;8.07;4.68;;;27.80;88.80;;;;;;5073061;28;20212;-58
2021/06/20 01:31:48;;;;;;;15.27;5.60;;;27.80;88.60;;;;;;5073244;28;20215;-58
2021/06/20 01:34:16;;;;;;;15.10;5.30;;;27.80;88.70;;;;;;5073013;28;20201;-59
2021/06/20 01:36:42;;;;;;;17.30;5.60;;;27.80;89.10;;;;;;5073068;28;20220;-58
2021/06/20 01:39:11;;;;;;;19.88;6.20;;;27.80;89.40;;;;;;5073125;28;20201;-58
2021/06/20 01:41:40;;;;;;;17.50;6.22;;;27.70;90.10;;;;;;5072986;28;20680;-58
2021/06/20 01:44:06;;;;;;;24.67;6.50;;;27.70;90.30;;;;;;5072702;28;20316;-59
2021/06/20 01:46:33;;;;;;;18.27;6.40;;;27.70;90.50;;;;;;5072909;28;20209;-59
2021/06/20 01:49:00;;;;;;;22.48;6.90;;;27.70;90.80;;;;;;5072764;28;20209;-58
2021/06/20 01:51:26;;;;;;;19.70;6.70;;;27.70;90.90;;;;;;5073191;28;20225;-58
2021/06/20 01:53:53;;;;;;;31.23;7.05;;;27.60;91.10;;;;;;5073160;28;20205;-59
2021/06/20 01:56:20;;;;;;;24.80;6.63;;;27.60;91.40;;;;;;5073108;28;20235;-59
2021/06/20 01:58:48;;;;;;;26.23;7.47;;;27.60;91.50;;;;;;5072892;28;20205;-59
2021/06/20 02:01:17;;;;;;;32.15;7.30;;;27.60;91.60;;;;;;5073452;28;20614;-60
2021/06/20 02:03:43;;;;;;;27.55;6.85;;;27.50;91.60;;;;;;5072424;28;20370;-60
2021/06/20 02:06:10;;;;;;;33.17;7.10;;;27.50;91.70;;;;;;5072972;28;20251;-60
2021/06/20 02:08:37;;;;;;;28.27;7.32;;;27.50;91.80;;;;;;5072616;28;20205;-60
2021/06/20 02:11:04;;;;;;;31.90;7.50;;;27.50;92.00;;;;;;5072599;28;20221;-60
2021/06/20 02:13:30;;;;;;;28.95;7.90;;;27.50;92.00;;;;;;5072008;28;20582;-60
2021/06/20 02:15:59;;;;;;;19.77;6.60;;;27.40;92.00;;;;;;5072350;28;20209;-60
2021/06/20 02:18:25;;;;;;;29.27;7.55;;;27.30;92.10;;;;;;5072312;28;20216;-60
2021/06/20 02:20:54;;;;;;;25.48;7.25;;;27.30;92.20;;;;;;5072135;28;20716;-60
2021/06/20 02:23:21;;;;;;;30.42;7.18;;;27.30;92.20;;;;;;5072166;28;20225;-60
2021/06/20 02:25:47;;;;;;;34.30;7.18;;;27.30;92.20;;;;;;5071972;28;20212;-61
2021/06/20 02:28:14;;;;;;;35.15;7.88;;;27.30;92.20;;;;;;5072052;28;20645;-61
2021/06/20 02:30:41;;;;;;;26.52;7.65;;;27.30;92.10;;;;;;5071943;28;20228;-62
2021/06/20 02:33:09;;;;;;;27.63;6.85;;;27.30;92.00;;;;;;5072602;28;20620;-60
2021/06/20 02:35:36;;;;;;;35.05;7.35;;;27.40;92.00;;;;;;5072243;28;20507;-61
2021/06/20 02:38:03;;;;;;;30.20;7.30;;;27.50;91.90;;;;;;5072123;28;20215;-61
2021/06/20 02:40:29;;;;;;;34.80;7.43;;;27.40;91.80;;;;;;5071887;28;20232;-60
2021/06/20 02:42:56;;;;;;;42.67;7.95;;;27.40;91.80;;;;;;5071758;28;20254;-61
2021/06/20 02:45:23;;;;;;;33.08;7.93;;;27.40;92.00;;;;;;5071669;28;20201;-61
2021/06/20 02:47:50;;;;;;;34.28;7.75;;;27.40;92.10;;;;;;5071738;28;20603;-60
2021/06/20 02:50:18;;;;;;;29.92;7.15;;;27.50;92.20;;;;;;5071994;28;20228;-60
2021/06/20 02:52:45;;;;;;;27.55;7.88;;;27.30;92.90;;;;;;5071899;28;20204;-61
2021/06/20 02:55:13;;;;;;;26.45;7.20;;;27.20;94.40;;;;;;5071698;28;20205;-61
2021/06/20 02:57:40;;;;;;;25.35;7.30;;;27.10;95.10;;;;;;5071387;28;20586;-61
2021/06/20 03:00:08;;;;;;;27.17;7.78;;;27.00;95.90;;;;;;5071520;28;20240;-61
2021/06/20 03:02:34;;;;;;;31.15;7.35;;;26.90;96.80;;;;;;5072052;28;20212;-60
2021/06/20 03:05:01;;;;;;;21.67;7.68;;;26.90;97.60;;;;;;5072077;28;20201;-60
2021/06/20 03:07:30;;;;;;;31.30;8.02;;;26.80;98.40;;;;;;5071983;28;20204;-59
2021/06/20 03:09:56;;;;;;;31.20;8.07;;;26.70;98.90;;;;;;5071643;28;20232;-63
2021/06/20 03:12:23;;;;;;;24.67;7.13;;;26.70;99.30;;;;;;5071717;28;20231;-60
2021/06/20 03:14:51;;;;;;;27.77;7.15;;;26.70;99.60;;;;;;5071495;28;20197;-60
2021/06/20 03:17:19;;;;;;;24.25;6.45;;;26.60;99.90;;;;;;5071615;28;20201;-61
2021/06/20 03:19:46;;;;;;;22.60;6.95;;;26.60;99.90;;;;;;5071378;28;20229;-61
2021/06/20 03:22:13;;;;;;;24.58;7.53;;;26.60;99.90;;;;;;5071518;28;20208;-60
2021/06/20 03:24:44;;;;;;;24.75;6.75;;;26.60;99.90;;;;;;5070655;28;20228;-60
2021/06/20 03:27:10;;;;;;;28.88;6.82;;;26.60;99.90;;;;;;5071191;28;20209;-61
2021/06/20 03:29:38;;;;;;;25.58;6.53;;;26.60;99.90;;;;;;5071469;28;20220;-60
2021/06/20 03:32:05;;;;;;;23.10;7.28;;;26.60;99.90;;;;;;5070977;28;20668;-62
2021/06/20 03:34:32;;;;;;;22.95;7.20;;;26.60;99.90;;;;;;5071107;28;20204;-62
2021/06/20 03:37:00;;;;;;;23.90;6.90;;;26.60;99.90;;;;;;5071391;28;20205;-61
2021/06/20 03:39:27;;;;;;;28.45;6.60;;;26.60;99.90;;;;;;5070742;28;20208;-61
2021/06/20 03:41:56;;;;;;;27.38;7.47;;;26.60;99.90;;;;;;5071188;28;20208;-61
2021/06/20 03:44:22;;;;;;;23.25;6.50;;;26.50;99.90;;;;;;5070999;28;20228;-62
2021/06/20 03:46:49;;;;;;;22.00;6.57;;;26.50;99.90;;;;;;5071174;28;20208;-61
2021/06/20 03:49:16;;;;;;;23.10;7.10;;;26.50;99.90;;;;;;5070724;28;20216;-61
2021/06/20 03:51:43;;;;;;;21.17;6.88;;;26.50;99.90;;;;;;5070848;28;20576;-61
2021/06/20 03:54:10;;;;;;;19.15;6.45;;;26.50;99.90;;;;;;5070759;28;20292;-60
2021/06/20 03:56:36;;;;;;;22.67;6.78;;;26.50;99.90;;;;;;5071154;28;20209;-60
2021/06/20 03:59:08;;;;;;;23.05;6.78;;;26.50;99.90;;;;;;5070653;28;20700;-63
2021/06/20 04:01:35;;;;;;;23.52;6.90;;;26.80;99.90;;;;;;5070511;28;20235;-61
2021/06/20 04:04:01;;;;;;;19.90;6.25;;;26.50;99.90;;;;;;5070540;28;20236;-61
2021/06/20 04:06:28;;;;;;;21.10;6.65;;;26.50;99.90;;;;;;5070695;28;20235;-64
2021/06/20 04:08:55;;;;;;;22.65;6.93;;;26.50;99.90;;;;;;5070696;28;20213;-62
2021/06/20 04:11:21;;;;;;;18.85;6.63;;;26.40;99.90;;;;;;5070574;28;20455;-61
2021/06/20 04:13:48;;;;;;;17.90;5.90;;;26.40;99.90;;;;;;5070531;28;20205;-61
2021/06/20 04:16:16;;;;;;;26.33;6.82;;;26.50;99.90;;;;;;5070638;28;20672;-61
2021/06/20 04:18:43;;;;;;;21.67;6.30;;;26.40;99.90;;;;;;5070597;28;20231;-60
2021/06/20 04:21:10;;;;;;;22.35;6.60;;;26.50;99.90;;;;;;5070554;28;20225;-61
2021/06/20 04:23:36;;;;;;;21.33;6.28;;;26.50;99.90;;;;;;5070624;28;20224;-61
2021/06/20 04:26:03;;;;;;;27.83;6.93;;;26.60;99.90;;;;;;5070746;28;20255;-60
2021/06/20 04:28:30;;;;;;;18.48;6.30;;;26.60;99.90;;;;;;5070919;28;20208;-61
2021/06/20 04:30:57;;;;;;;28.25;6.88;;;26.70;99.90;;;;;;5070496;28;20247;-59
2021/06/20 04:33:25;;;;;;;20.60;6.43;;;26.80;99.90;;;;;;5070703;28;20296;-61
2021/06/20 04:35:52;;;;;;;28.20;7.70;;;26.90;99.90;;;;;;5070524;28;20205;-60
2021/06/20 04:38:19;;;;;;;19.95;6.95;;;27.00;99.90;;;;;;5072953;28;20703;-61
2021/06/20 04:40:46;;;;;;;21.48;6.03;;;27.00;99.90;;;;;;5074220;28;20256;-61
2021/06/20 04:43:24;;;;;;;25.17;7.65;;;27.20;99.90;;;;;;5074286;28;20237;-61
2021/06/20 04:45:51;;;;;;;21.45;5.55;;;27.40;99.90;;;;;;5074138;28;20608;-61
2021/06/20 04:48:18;;;;;;;20.52;6.43;;;27.50;99.90;;;;;;5074196;28;20211;-61
2021/06/20 04:50:46;;;;;;;30.20;6.85;;;27.50;99.90;;;;;;5074116;28;20236;-59
2021/06/20 04:53:15;;;;;;;19.15;6.20;;;27.60;99.90;;;;;;5074087;28;20209;-61
2021/06/20 04:55:42;;;;;;;31.27;6.90;;;27.60;99.90;;;;;;5073862;28;20209;-61
2021/06/20 04:58:09;;;;;;;19.52;7.47;;;27.50;99.90;;;;;;5074046;28;20200;-60
2021/06/20 05:00:35;;;;;;;23.92;6.70;;;27.30;99.90;;;;;;5073704;28;20640;-60
2021/06/20 05:03:02;;;;;;;23.05;6.47;;;27.20;99.90;;;;;;5074011;28;20217;-61
2021/06/20 05:05:29;;;;;;;28.98;6.65;;;27.10;99.90;;;;;;5073773;28;20227;-60
2021/06/20 05:07:57;;;;;;;20.63;5.88;;;27.10;99.90;;;;;;5073635;28;20216;-61
2021/06/20 05:10:23;;;;;;;26.77;6.47;;;27.20;99.90;;;;;;5073995;28;20224;-61
2021/06/20 05:12:55;;;;;;;28.27;6.50;;;27.40;99.90;;;;;;5073872;28;20629;-61
2021/06/20 05:15:21;;;;;;;20.90;6.55;;;27.50;99.90;;;;;;5073517;28;20251;-63
2021/06/20 05:17:48;;;;;;;25.08;7.25;;;27.60;99.90;;;;;;5073680;28;20204;-61
2021/06/20 05:20:15;;;;;;;24.95;7.30;;;27.70;99.90;;;;;;5073403;28;20224;-61
2021/06/20 05:22:41;;;;;;;21.98;6.82;;;27.90;99.90;;;;;;5074795;28;20217;-61
2021/06/20 05:25:10;;;;;;;25.48;7.22;;;28.00;99.90;;;;;;5073326;28;20225;-61
2021/06/20 05:27:37;;;;;;;26.30;6.38;;;28.10;99.90;;;;;;5073388;28;20482;-61
2021/06/20 05:30:05;;;;;;;23.42;6.38;;;28.10;99.90;;;;;;5073146;28;20604;-61
2021/06/20 05:32:31;;;;;;;24.27;6.93;;;28.20;99.90;;;;;;5073564;28;20209;-61
2021/06/20 05:34:58;;;;;;;25.92;7.25;;;28.20;99.90;;;;;;5073436;28;20197;-61
2021/06/20 05:37:25;;;;;;;23.40;6.95;;;28.10;99.90;;;;;;5073339;28;20213;-62
2021/06/20 05:39:52;;;;;;;22.88;7.32;;;28.00;99.90;;;;;;5073059;28;20225;-61
2021/06/20 05:42:20;;;;;;;23.88;6.93;;;27.90;99.90;;;;;;5072925;28;20205;-61
2021/06/20 05:44:47;;;;;;;21.30;6.90;;;27.90;99.90;;;;;;5073217;28;20229;-61
2021/06/20 05:47:13;;;;;;;23.90;6.47;;;27.90;99.90;;;;;;5073353;28;20205;-60
2021/06/20 05:49:40;;;;;;;22.02;7.63;;;28.00;99.90;;;;;;5072640;28;20236;-60
2021/06/20 05:52:07;;;;;;;19.20;6.15;;;28.20;99.90;;;;;;5073155;28;20205;-63
2021/06/20 05:54:34;;;;;;;18.85;5.63;;;28.90;99.90;;;;;;5072949;28;20200;-61
2021/06/20 05:57:00;;;;;;;27.55;6.20;;;29.30;99.30;;;;;;5072863;28;20212;-63
2021/06/20 05:59:28;;;;;;;21.80;7.10;;;29.30;99.20;;;;;;5072647;28;20209;-61
2021/06/20 06:01:55;;;;;;;19.52;6.40;;;29.20;98.80;;;;;;5072830;28;20208;-61
2021/06/20 06:04:24;;;;;;;19.83;6.30;;;29.10;98.70;;;;;;5054551;28;20310;-60
2021/06/20 06:06:50;;;;;;;22.33;6.57;;;29.00;98.70;;;;;;5072670;28;20220;-61
2021/06/20 06:09:17;;;;;;;27.85;6.45;;;28.80;98.60;;;;;;5072675;28;20212;-60
2021/06/20 06:11:44;;;;;;;18.45;6.38;;;28.70;98.90;;;;;;5072418;28;20338;-61
2021/06/20 06:14:11;;;;;;;23.20;6.22;;;28.70;98.50;;;;;;5072564;28;20197;-60
2021/06/20 06:16:38;;;;;;;21.13;5.95;;;28.70;98.50;;;;;;5072103;28;20676;-60
2021/06/20 06:19:05;;;;;;;22.90;6.43;;;28.80;98.20;;;;;;5072312;28;20688;-60
2021/06/20 06:21:32;;;;;;;26.13;6.13;;;28.90;98.00;;;;;;5072113;28;20236;-60
2021/06/20 06:23:58;;;;;;;23.92;6.15;;;29.00;98.00;;;;;;5072447;28;20212;-61
2021/06/20 06:26:25;;;;;;;20.45;5.53;;;29.40;96.80;;;;;;5072622;28;20208;-61
2021/06/20 06:28:52;;;;;;;27.65;5.93;;;30.40;95.10;;;;;;5072180;28;20398;-61
2021/06/20 06:31:18;;;;;;;20.80;5.57;;;31.60;92.80;;;;;;5072031;28;20224;-61
2021/06/20 06:33:46;;;;;;;21.30;5.28;;;32.60;91.10;;;;;;5071959;28;20247;-60
2021/06/20 06:36:13;;;;;;;20.15;5.28;;;33.70;85.80;;;;;;5072013;28;20204;-60
2021/06/20 06:38:40;;;;;;;19.33;5.03;;;33.80;83.30;;;;;;5071519;28;20664;-60
2021/06/20 06:41:06;;;;;;;20.15;5.45;;;33.70;82.40;;;;;;5071797;28;20288;-60
2021/06/20 06:43:33;;;;;;;18.77;5.10;;;33.20;82.80;;;;;;5071697;28;20205;-61
2021/06/20 06:46:00;;;;;;;19.35;5.32;;;32.80;84.50;;;;;;5071585;28;20727;-60
2021/06/20 06:48:27;;;;;;;17.85;4.88;;;32.90;84.20;;;;;;5071545;28;20696;-61
2021/06/20 06:50:55;;;;;;;16.33;4.75;;;32.80;84.50;;;;;;5071862;28;20233;-61
2021/06/20 06:53:21;;;;;;;14.40;4.18;;;32.90;83.60;;;;;;5071631;28;20209;-61
2021/06/20 06:55:48;;;;;;;16.73;4.45;;;33.20;82.70;;;;;;5071536;28;20330;-61
2021/06/20 06:58:15;;;;;;;15.63;4.10;;;33.40;80.50;;;;;;5071463;28;20291;-61
2021/06/20 07:00:42;;;;;;;22.88;4.90;;;33.30;80.00;;;;;;5070563;28;20237;-61
2021/06/20 07:03:08;;;;;;;13.88;4.07;;;32.80;81.30;;;;;;5071631;28;20208;-61
2021/06/20 07:05:35;;;;;;;9.70;3.60;;;32.30;82.30;;;;;;5072141;28;20228;-60
2021/06/20 07:08:03;;;;;;;12.27;4.05;;;31.60;82.60;;;;;;5071271;28;20209;-59
2021/06/20 07:10:30;;;;;;;13.40;3.88;;;31.00;85.00;;;;;;5071594;28;20236;-60
2021/06/20 07:12:57;;;;;;;22.15;4.22;;;30.40;87.60;;;;;;5071552;28;20205;-61
2021/06/20 07:15:24;;;;;;;13.88;4.00;;;30.00;88.70;;;;;;5071179;28;20201;-60
2021/06/20 07:17:51;;;;;;;13.25;3.90;;;29.70;89.80;;;;;;5071021;28;20560;-60
2021/06/20 07:20:17;;;;;;;14.43;3.95;;;29.50;90.70;;;;;;5071022;28;20252;-61
2021/06/20 07:22:45;;;;;;;12.00;3.88;;;29.30;91.20;;;;;;5071112;28;20205;-60
2021/06/20 07:25:15;;;;;;;14.18;4.10;;;29.20;91.30;;;;;;5071207;28;20229;-60
2021/06/20 07:27:42;;;;;;;10.07;3.58;;;29.20;91.40;;;;;;5071121;28;20691;-60
2021/06/20 07:30:11;;;;;;;9.88;4.20;;;29.10;91.60;;;;;;5070983;28;20633;-60
2021/06/20 07:32:38;;;;;;;14.82;4.00;;;29.00;91.70;;;;;;5070953;28;20251;-60
2021/06/20 07:35:06;;;;;;;15.77;4.18;;;28.80;92.40;;;;;;5071164;28;20209;-60
2021/06/20 07:37:33;;;;;;;16.42;4.38;;;28.60;93.10;;;;;;5071078;28;20205;-60
2021/06/20 07:40:00;;;;;;;17.92;4.30;;;28.60;92.80;;;;;;5070860;28;20630;-60
2021/06/20 07:42:28;;;;;;;12.57;3.45;;;28.70;92.90;;;;;;5071175;28;20209;-60
2021/06/20 07:44:55;;;;;;;11.25;3.80;;;28.70;92.90;;;;;;5070968;28;20227;-60
2021/06/20 07:47:22;;;;;;;13.90;3.90;;;28.80;92.90;;;;;;5071018;28;20215;-60
2021/06/20 07:49:48;;;;;;;12.65;3.92;;;28.70;93.00;;;;;;5070986;28;20224;-60
2021/06/20 07:52:15;;;;;;;15.18;4.47;;;28.70;92.80;;;;;;5071042;28;20307;-60
2021/06/20 07:54:49;;;;;;;9.77;3.92;;;28.70;92.80;;;;;;5070820;28;20227;-61
2021/06/20 07:57:16;;;;;;;10.73;3.67;;;28.80;92.80;;;;;;5070882;28;20204;-61
2021/06/20 07:59:44;;;;;;;16.23;4.32;;;28.90;92.70;;;;;;5071180;28;20739;-61
2021/06/20 08:02:11;;;;;;;14.05;3.80;;;28.90;92.80;;;;;;5070902;28;20239;-60
2021/06/20 08:04:38;;;;;;;12.77;3.63;;;28.80;92.80;;;;;;5070807;28;20273;-60
2021/06/20 08:07:05;;;;;;;14.70;3.90;;;28.70;93.10;;;;;;5070884;28;20259;-60
2021/06/20 08:09:32;;;;;;;12.32;4.10;;;28.60;92.90;;;;;;5071028;28;20201;-60
2021/06/20 08:11:59;;;;;;;16.20;4.20;;;28.50;92.80;;;;;;5072908;28;20205;-60
2021/06/20 08:14:26;;;;;;;11.18;3.70;;;28.20;93.40;;;;;;5074970;28;20200;-58
2021/06/20 08:16:54;;;;;;;16.90;4.50;;;28.10;93.90;;;;;;5075143;28;20212;-59
2021/06/20 08:19:21;;;;;;;8.02;3.90;;;27.90;94.30;;;;;;5075595;28;20546;-60
2021/06/20 08:21:48;;;;;;;13.63;4.80;;;27.60;94.90;;;;;;5075136;28;20226;-60
2021/06/20 08:24:15;;;;;;;10.75;3.92;;;27.50;95.50;;;;;;5074649;28;20211;-60
2021/06/20 08:26:42;;;;;;;11.38;3.20;;;27.40;95.50;;;;;;5074596;28;20224;-60
2021/06/20 08:29:09;;;;;;;14.30;3.72;;;27.30;95.90;;;;;;5074660;28;20581;-59
2021/06/20 08:31:36;;;;;;;15.15;3.88;;;27.30;95.80;;;;;;5074406;28;20248;-60
2021/06/20 08:34:06;;;;;;;8.20;3.53;;;27.40;95.60;;;;;;5074327;28;20204;-60
2021/06/20 08:36:32;;;;;;;10.38;3.50;;;27.50;95.10;;;;;;5074322;28;20266;-59
2021/06/20 08:38:59;;;;;;;9.57;3.33;;;27.70;94.70;;;;;;5074009;28;20216;-60
2021/06/20 08:41:28;;;;;;;7.32;2.88;;;27.90;94.50;;;;;;5074026;28;20229;-60
2021/06/20 08:43:54;;;;;;;8.90;3.00;;;28.10;93.70;;;;;;5073925;28;20208;-59
2021/06/20 08:46:21;;;;;;;9.43;3.13;;;28.30;93.30;;;;;;5074117;28;20247;-60
2021/06/20 08:48:48;;;;;;;12.25;3.88;;;28.60;93.00;;;;;;5074142;28;20212;-60
2021/06/20 08:51:16;;;;;;;11.40;3.40;;;28.90;92.00;;;;;;5073926;28;20291;-60
2021/06/20 08:53:43;;;;;;;9.43;3.03;;;29.20;91.60;;;;;;5073893;28;20211;-60
2021/06/20 08:56:10;;;;;;;12.35;3.13;;;29.40;91.10;;;;;;5073726;28;20602;-60
2021/06/20 08:58:37;;;;;;;9.82;3.17;;;29.40;90.60;;;;;;5073839;28;20204;-60
2021/06/20 09:01:06;;;;;;;13.68;3.58;;;29.50;90.30;;;;;;5073920;28;20233;-60
2021/06/20 09:03:40;;;;;;;14.60;3.38;;;29.70;90.00;;;;;;5073726;28;20207;-59
2021/06/20 09:06:16;;;;;;;11.30;3.95;;;29.80;89.10;;;;;;5073164;28;20224;-60
2021/06/20 09:08:47;;;;;;;13.30;4.07;;;29.70;89.60;;;;;;5073310;28;20239;-59
2021/06/20 09:11:23;;;;;;;9.45;3.00;;;29.80;89.10;;;;;;5073521;28;20225;-60
2021/06/20 09:13:51;;;;;;;11.38;3.35;;;29.90;88.60;;;;;;5073643;28;20208;-60
2021/06/20 09:16:20;;;;;;;9.02;3.17;;;29.80;88.60;;;;;;5073468;28;20569;-60
2021/06/20 09:18:51;;;;;;;9.80;2.95;;;29.70;88.50;;;;;;5073330;28;20248;-60
2021/06/20 09:21:23;;;;;;;11.25;3.58;;;29.80;87.80;;;;;;5073292;28;20606;-59
2021/06/20 09:23:50;;;;;;;12.38;3.13;;;29.90;87.60;;;;;;5072834;28;20213;-59
2021/06/20 09:26:17;;;;;;;7.40;2.90;;;30.00;87.00;;;;;;5073574;28;20224;-60
2021/06/20 09:28:47;;;;;;;9.52;3.00;;;30.20;86.30;;;;;;5073585;28;20291;-59
2021/06/20 09:31:14;;;;;;;7.30;3.28;;;30.30;85.90;;;;;;5073438;28;20737;-60
2021/06/20 09:33:40;;;;;;;12.65;3.45;;;30.40;85.90;;;;;;5073030;28;20209;-60
2021/06/20 09:36:07;;;;;;;11.73;3.42;;;30.60;84.60;;;;;;5073288;28;20209;-61
2021/06/20 09:38:39;;;;;;;10.05;3.13;;;30.70;84.70;;;;;;5073216;28;20212;-61
2021/06/20 09:41:07;;;;;;;13.85;3.50;;;30.90;84.40;;;;;;5073358;28;20231;-59
2021/06/20 09:43:35;;;;;;;7.68;3.20;;;30.80;84.10;;;;;;5073150;28;20205;-59
2021/06/20 09:46:02;;;;;;;13.95;3.38;;;30.80;84.30;;;;;;5072815;28;20221;-60
2021/06/20 09:48:31;;;;;;;10.95;3.72;;;30.70;84.70;;;;;;5073453;28;20684;-61
2021/06/20 09:51:01;;;;;;;12.93;3.50;;;30.70;84.70;;;;;;5073044;28;20229;-60
2021/06/20 09:53:38;;;;;;;9.35;3.67;;;30.80;84.20;;;;;;5072946;28;20219;-61
2021/06/20 09:56:16;;;;;;;8.52;2.72;;;30.90;83.70;;;;;;5073276;28;20251;-60
2021/06/20 09:58:45;;;;;;;14.65;3.80;;;31.20;83.20;;;;;;5072706;28;20627;-60
2021/06/20 10:01:12;;;;;;;10.75;3.63;;;31.30;82.70;;;;;;5072881;28;20236;-61
2021/06/20 10:03:39;;;;;;;13.50;3.88;;;31.40;82.50;;;;;;5074071;28;20209;-60
2021/06/20 10:06:06;;;;;;;15.68;3.88;;;31.60;82.20;;;;;;5073942;28;20231;-60
2021/06/20 10:08:35;;;;;;;12.20;3.58;;;31.70;81.70;;;;;;5074958;28;20274;-60
2021/06/20 10:11:02;;;;;;;12.45;4.68;;;31.80;81.70;;;;;;5071223;28;20229;-62
2021/06/20 10:13:29;;;;;;;15.48;4.55;;;31.90;81.50;;;;;;5072802;28;20672;-67
2021/06/20 10:15:57;;;;;;;16.13;4.68;;;31.90;81.50;;;;;;5072742;28;20672;-62
2021/06/20 10:18:24;;;;;;;11.90;4.03;;;31.80;81.70;;;;;;5072293;28;20211;-64
2021/06/20 10:20:57;;;;;;;17.95;4.35;;;31.70;81.70;;;;;;5072207;28;20713;-66
2021/06/20 10:23:24;;;;;;;15.05;4.40;;;31.60;82.70;;;;;;5072439;28;20677;-64
2021/06/20 10:25:53;;;;;;;16.48;4.00;;;31.40;82.70;;;;;;5072434;28;20251;-62
2021/06/20 10:28:22;;;;;;;16.60;4.60;;;31.30;83.30;;;;;;5072577;28;20208;-61
2021/06/20 10:30:50;;;;;;;15.98;3.90;;;31.00;84.30;;;;;;5072670;28;20228;-62
2021/06/20 10:33:22;;;;;;;12.30;3.90;;;30.80;85.50;;;;;;5072389;28;20232;-62
2021/06/20 10:36:01;;;;;;;17.23;4.38;;;30.60;86.00;;;;;;5072473;28;20681;-63
2021/06/20 10:38:34;;;;;;;13.40;4.15;;;30.50;86.60;;;;;;5071844;28;20251;-64
2021/06/20 10:41:02;;;;;;;9.43;3.83;;;30.50;87.10;;;;;;5072127;28;20224;-64
2021/06/20 10:43:29;;;;;;;15.65;3.83;;;30.40;87.40;;;;;;5072086;28;20208;-62
2021/06/20 10:45:56;;;;;;;17.92;4.90;;;30.40;88.10;;;;;;5072505;28;20254;-62
2021/06/20 10:48:24;;;;;;;13.73;4.50;;;30.40;87.90;;;;;;5071813;28;20216;-61
2021/06/20 10:50:53;;;;;;;14.25;4.93;;;30.30;88.00;;;;;;5071811;28;20236;-61
2021/06/20 10:53:22;;;;;;;12.88;4.57;;;30.30;88.60;;;;;;5072090;28;20205;-62
2021/06/20 10:55:51;;;;;;;12.68;4.45;;;30.30;88.80;;;;;;5072263;28;20736;-62
2021/06/20 10:58:28;;;;;;;14.68;4.85;;;30.20;89.20;;;;;;5071795;28;20208;-65
2021/06/20 11:01:07;;;;;;;16.50;5.00;;;29.90;89.70;;;;;;5071702;28;20248;-62
2021/06/20 11:03:34;;;;;;;11.98;4.15;;;29.90;90.20;;;;;;5071721;28;20621;-64
2021/06/20 11:06:13;;;;;;;18.42;4.75;;;29.90;90.20;;;;;;5071939;28;20735;-62
2021/06/20 11:08:41;;;;;;;13.27;4.93;;;30.00;90.10;;;;;;5071943;28;20204;-62
2021/06/20 11:11:15;;;;;;;18.55;4.88;;;30.30;90.00;;;;;;5071723;28;20233;-63
2021/06/20 11:13:44;;;;;;;15.68;4.43;;;30.40;90.00;;;;;;5071301;28;20222;-62
2021/06/20 11:16:14;;;;;;;19.20;4.97;;;30.50;90.10;;;;;;5072272;28;20208;-64
2021/06/20 11:18:41;;;;;;;17.35;5.05;;;30.90;89.00;;;;;;5071691;28;20201;-65
2021/06/20 11:21:08;;;;;;;12.32;4.57;;;31.20;88.20;;;;;;5071550;28;20233;-65
2021/06/20 11:23:40;;;;;;;13.50;5.03;;;31.60;87.10;;;;;;5071011;28;20720;-62
2021/06/20 11:26:06;;;;;;;18.38;5.03;;;31.80;86.40;;;;;;5071339;28;20239;-64
2021/06/20 11:28:33;;;;;;;14.07;4.68;;;32.10;85.80;;;;;;5071483;28;20213;-61
2021/06/20 11:31:07;;;;;;;14.50;4.40;;;32.20;85.20;;;;;;5071225;28;20724;-64
2021/06/20 11:33:34;;;;;;;21.17;4.50;;;32.40;84.30;;;;;;5070861;28;20213;-66
2021/06/20 11:36:01;;;;;;;17.92;4.70;;;32.60;83.00;;;;;;5071244;28;20207;-61
2021/06/20 11:38:33;;;;;;;14.75;4.30;;;32.80;80.10;;;;;;5071278;28;20209;-60
2021/06/20 11:41:10;;;;;;;18.42;4.60;;;32.90;78.60;;;;;;5071289;28;20747;-59
2021/06/20 11:43:40;;;;;;;17.60;4.90;;;33.20;78.20;;;;;;5070910;28;20676;-60
2021/06/20 11:46:18;;;;;;;19.17;4.50;;;33.50;76.80;;;;;;5070425;28;20652;-59
2021/06/20 11:48:52;;;;;;;14.93;4.25;;;33.70;75.40;;;;;;5071525;28;20251;-60
2021/06/20 11:51:29;;;;;;;19.15;4.70;;;33.90;75.20;;;;;;5070920;28;20258;-60
2021/06/20 11:54:08;;;;;;;14.75;4.20;;;34.20;73.50;;;;;;5070786;28;20586;-60
2021/06/20 11:56:35;;;;;;;18.52;4.75;;;34.30;73.20;;;;;;5070981;28;20609;-59
2021/06/20 11:59:02;;;;;;;17.85;4.90;;;34.00;73.20;;;;;;5070991;28;20291;-60
2021/06/20 12:01:40;;;;;;;17.38;4.43;;;33.80;73.80;;;;;;5070452;28;20244;-59
2021/06/20 12:04:08;;;;;;;22.20;5.03;;;33.80;73.50;;;;;;5071235;28;20208;-59
2021/06/20 12:06:35;;;;;;;17.33;4.70;;;34.00;72.60;;;;;;5071128;28;20731;-59
2021/06/20 12:09:02;;;;;;;17.02;4.70;;;34.10;70.30;;;;;;5071002;28;20209;-59
2021/06/20 12:11:30;;;;;;;17.75;4.53;;;34.20;71.10;;;;;;5070875;28;20229;-59
2021/06/20 12:13:57;;;;;;;19.17;4.45;;;34.10;71.00;;;;;;5070593;28;20215;-59
2021/06/20 12:16:23;;;;;;;21.83;4.80;;;34.20;68.20;;;;;;5071355;28;20246;-60
2021/06/20 12:18:52;;;;;;;15.48;4.63;;;34.30;68.30;;;;;;5070950;28;20483;-60
2021/06/20 12:21:27;;;;;;;19.77;4.65;;;34.50;68.60;;;;;;5070746;28;20232;-58
2021/06/20 12:23:55;;;;;;;19.77;6.53;;;34.40;68.10;;;;;;5070792;28;20212;-61
2021/06/20 12:26:26;;;;;;;18.15;5.10;;;34.10;68.60;;;;;;5070680;28;20229;-60
2021/06/20 12:28:53;;;;;;;19.55;4.15;;;33.90;69.50;;;;;;5070769;28;20692;-60
2021/06/20 12:31:20;;;;;;;19.30;4.95;;;33.90;67.50;;;;;;5071181;28;20236;-60
2021/06/20 12:33:46;;;;;;;18.17;4.03;;;33.90;64.10;;;;;;5073371;28;20598;-60
2021/06/20 12:36:15;;;;;;;26.17;4.82;;;33.80;64.30;;;;;;5071479;28;20288;-59
2021/06/20 12:38:42;;;;;;;17.08;4.50;;;33.70;66.00;;;;;;5071249;28;20208;-59
2021/06/20 12:41:17;;;;;;;27.40;5.15;;;33.50;67.50;;;;;;5071207;28;20579;-61